Time;durP1;ratioP1;P1;durP2;ratioP2;P2;SDS_P1;SDS_P2;PMS_P1;PMS_P2;Temp;Humidity;BMP_temperature;BMP_pressure;BME280_temperature;BME280_humidity;BME280_pressure;Samples;Min_cycle;Max_cycle;Signal;HPM_P1;HPM_P2
2022/03/21 00:01:04;;;;;;;31.10;25.05;;;14.10;56.50;;;;;;5077069;28;20048;-74
2022/03/21 00:03:30;;;;;;;30.48;25.23;;;14.10;56.50;;;;;;5075521;28;20060;-74
2022/03/21 00:05:58;;;;;;;31.35;25.42;;;14.00;56.40;;;;;;5072915;28;20383;-73
2022/03/21 00:08:24;;;;;;;30.00;25.58;;;14.00;56.50;;;;;;5076716;28;20105;-71
2022/03/21 00:10:51;;;;;;;29.35;24.95;;;14.00;56.50;;;;;;5076053;28;20529;-73
2022/03/21 00:13:17;;;;;;;31.65;26.33;;;14.00;57.20;;;;;;5076363;28;20048;-72
2022/03/21 00:15:45;;;;;;;30.73;25.40;;;14.00;56.60;;;;;;5076862;28;20045;-73
2022/03/21 00:18:13;;;;;;;32.70;26.92;;;14.00;56.60;;;;;;5076734;28;20101;-71
2022/03/21 00:20:41;;;;;;;30.80;25.52;;;14.00;56.50;;;;;;5076841;28;20048;-73
2022/03/21 00:23:07;;;;;;;30.15;25.38;;;14.00;56.60;;;;;;5076446;28;20403;-71
2022/03/21 00:25:33;;;;;;;32.70;26.75;;;13.90;56.50;;;;;;5076866;28;20368;-73
2022/03/21 00:27:59;;;;;;;31.58;25.60;;;14.00;56.60;;;;;;5075441;28;20045;-70
2022/03/21 00:30:26;;;;;;;30.50;25.55;;;13.90;56.60;;;;;;5076479;28;20492;-71
2022/03/21 00:32:53;;;;;;;31.50;25.52;;;13.90;57.20;;;;;;5076154;28;20044;-71
2022/03/21 00:35:20;;;;;;;31.60;25.95;;;13.90;56.50;;;;;;5075863;28;20059;-73
2022/03/21 00:37:46;;;;;;;31.20;25.80;;;13.90;56.50;;;;;;5076251;28;20049;-73
2022/03/21 00:40:14;;;;;;;32.58;26.88;;;13.90;56.50;;;;;;5076561;28;20354;-71
2022/03/21 00:42:42;;;;;;;31.70;26.70;;;13.80;57.10;;;;;;5076198;28;20064;-71
2022/03/21 00:45:13;;;;;;;32.45;26.40;;;13.90;56.50;;;;;;5075728;28;20398;-73
2022/03/21 00:47:39;;;;;;;32.95;26.75;;;13.80;56.50;;;;;;5084290;28;20085;-72
2022/03/21 00:50:07;;;;;;;32.80;26.05;;;13.80;56.50;;;;;;5096593;28;20040;-72
2022/03/21 00:52:40;;;;;;;31.95;25.55;;;13.80;56.50;;;;;;5093167;28;20043;-72
2022/03/21 00:55:09;;;;;;;30.63;26.20;;;13.80;56.50;;;;;;5078702;28;20044;-75
2022/03/21 00:57:35;;;;;;;32.47;26.05;;;13.80;56.50;;;;;;5096204;28;20432;-73
2022/03/21 01:00:04;;;;;;;28.63;24.98;;;13.80;56.40;;;;;;5096847;28;20435;-71
2022/03/21 01:02:30;;;;;;;35.55;28.70;;;13.70;56.30;;;;;;5096352;28;20059;-70
2022/03/21 01:04:56;;;;;;;32.72;27.77;;;13.50;55.90;;;;;;5095660;28;20439;-71
2022/03/21 01:07:21;;;;;;;31.95;26.45;;;13.40;56.20;;;;;;5095975;28;20048;-72
2022/03/21 01:09:47;;;;;;;32.60;26.70;;;13.40;56.60;;;;;;5095171;28;20062;-71
2022/03/21 01:12:14;;;;;;;35.08;26.33;;;13.30;56.70;;;;;;5095896;28;20052;-71
2022/03/21 01:14:40;;;;;;;31.80;26.90;;;13.30;56.70;;;;;;5096001;28;20059;-73
2022/03/21 01:17:06;;;;;;;32.83;27.23;;;13.30;56.60;;;;;;5077991;28;20341;-72
2022/03/21 01:19:32;;;;;;;32.97;26.70;;;13.30;56.70;;;;;;5095425;28;20044;-72
2022/03/21 01:21:57;;;;;;;33.15;27.98;;;13.40;56.70;;;;;;5095707;28;20043;-72
2022/03/21 01:24:24;;;;;;;31.52;26.10;;;13.30;56.50;;;;;;5078040;28;20371;-73
2022/03/21 01:26:49;;;;;;;32.58;26.35;;;13.30;56.60;;;;;;5095826;28;20098;-73
2022/03/21 01:29:15;;;;;;;30.85;26.85;;;13.30;56.50;;;;;;5095861;28;20071;-72
2022/03/21 01:31:41;;;;;;;31.25;26.05;;;13.20;56.50;;;;;;5095533;28;20484;-72
2022/03/21 01:34:07;;;;;;;33.95;26.98;;;13.20;56.60;;;;;;5077560;28;20052;-73
2022/03/21 01:36:32;;;;;;;31.10;25.30;;;13.20;56.60;;;;;;5095815;28;20131;-73
2022/03/21 01:38:58;;;;;;;32.00;25.45;;;13.20;56.60;;;;;;5095566;28;20078;-72
2022/03/21 01:41:24;;;;;;;30.27;26.17;;;13.20;56.60;;;;;;5095323;28;20068;-71
2022/03/21 01:43:55;;;;;;;32.65;26.70;;;13.10;56.50;;;;;;5095377;28;20086;-73
2022/03/21 01:46:21;;;;;;;33.10;26.35;;;13.10;56.40;;;;;;5095653;28;20417;-73
2022/03/21 01:48:47;;;;;;;31.83;26.65;;;13.10;56.60;;;;;;5096149;28;20048;-72
2022/03/21 01:51:12;;;;;;;33.58;29.17;;;13.00;56.70;;;;;;5060842;28;20344;-73
2022/03/21 01:56:23;;;;;;;29.30;25.35;;;13.00;56.60;;;;;;5095191;28;20044;-73
2022/03/21 01:58:49;;;;;;;36.13;27.25;;;13.00;56.60;;;;;;5095587;28;20052;-72
2022/03/21 02:01:15;;;;;;;35.20;27.42;;;13.00;56.60;;;;;;5095125;28;20444;-72
2022/03/21 02:03:40;;;;;;;31.90;26.95;;;13.00;56.60;;;;;;5094984;28;20048;-73
2022/03/21 02:06:06;;;;;;;31.58;25.95;;;13.00;56.40;;;;;;5095436;28;20054;-73
2022/03/21 02:08:32;;;;;;;35.80;28.45;;;13.00;56.60;;;;;;5077040;28;20451;-71
2022/03/21 02:10:58;;;;;;;33.88;27.27;;;13.00;56.60;;;;;;5095343;28;20043;-73
2022/03/21 02:13:24;;;;;;;33.38;26.27;;;12.90;56.40;;;;;;5095212;28;20449;-72
2022/03/21 02:15:50;;;;;;;34.47;28.08;;;12.90;56.40;;;;;;5077978;28;20052;-73
2022/03/21 02:18:17;;;;;;;36.22;27.00;;;12.90;56.60;;;;;;5095181;28;20050;-73
2022/03/21 02:20:44;;;;;;;31.98;26.40;;;12.80;56.60;;;;;;5077753;28;20048;-71
2022/03/21 02:23:20;;;;;;;33.28;26.83;;;12.90;56.70;;;;;;5099848;28;20358;-74
2022/03/21 02:25:47;;;;;;;32.63;27.00;;;12.90;56.70;;;;;;5099023;28;20168;-72
2022/03/21 02:28:16;;;;;;;34.80;28.77;;;12.90;56.70;;;;;;5098993;28;20117;-71
2022/03/21 02:30:48;;;;;;;33.05;27.33;;;12.80;56.60;;;;;;5081883;28;20044;-71
2022/03/21 02:33:16;;;;;;;33.72;27.73;;;12.80;56.70;;;;;;5098652;28;20059;-72
2022/03/21 02:35:45;;;;;;;31.50;25.98;;;12.80;56.90;;;;;;5099196;28;20083;-73
2022/03/21 02:38:13;;;;;;;33.88;26.40;;;12.80;56.80;;;;;;5098572;28;20052;-72
2022/03/21 02:40:38;;;;;;;31.98;27.23;;;12.80;56.70;;;;;;5098967;28;20048;-71
2022/03/21 02:43:04;;;;;;;32.92;25.67;;;12.80;56.70;;;;;;5099293;28;20359;-73
2022/03/21 02:45:30;;;;;;;34.28;27.48;;;12.80;56.70;;;;;;5080755;28;20374;-73
2022/03/21 02:47:56;;;;;;;34.78;28.13;;;12.80;56.70;;;;;;5080822;28;20067;-72
2022/03/21 02:50:56;;;;;;;34.83;27.63;;;12.80;56.60;;;;;;5098718;28;20375;-73
2022/03/21 02:53:23;;;;;;;32.55;26.45;;;12.70;56.30;;;;;;5081513;28;20363;-72
2022/03/21 02:55:54;;;;;;;32.13;27.23;;;12.70;56.50;;;;;;5098443;28;20055;-71
2022/03/21 02:58:20;;;;;;;32.10;25.83;;;12.70;56.60;;;;;;5098393;28;20505;-73
2022/03/21 03:00:45;;;;;;;34.25;27.38;;;12.70;56.60;;;;;;5098463;28;20048;-72
2022/03/21 03:03:11;;;;;;;34.13;27.23;;;12.60;56.60;;;;;;5098060;28;20056;-71
2022/03/21 03:05:37;;;;;;;32.75;26.95;;;12.60;56.80;;;;;;5098549;28;20044;-73
2022/03/21 03:08:03;;;;;;;33.95;27.08;;;12.60;56.80;;;;;;5081045;28;20524;-71
2022/03/21 03:10:29;;;;;;;33.30;27.77;;;12.60;56.60;;;;;;5080069;28;20113;-73
2022/03/21 03:12:55;;;;;;;35.00;27.80;;;12.60;56.70;;;;;;5080587;28;20136;-72
2022/03/21 03:15:21;;;;;;;33.83;27.60;;;12.60;56.70;;;;;;5098374;28;20131;-73
2022/03/21 03:17:46;;;;;;;34.08;28.48;;;12.60;56.70;;;;;;5097584;28;20073;-71
2022/03/21 03:20:12;;;;;;;34.15;27.73;;;12.60;56.70;;;;;;5080890;28;20119;-72
2022/03/21 03:22:39;;;;;;;34.40;28.40;;;12.60;56.60;;;;;;5080557;28;20048;-72
2022/03/21 03:25:05;;;;;;;34.97;28.30;;;12.60;56.50;;;;;;5094982;28;20367;-71
2022/03/21 03:27:31;;;;;;;36.35;28.40;;;12.60;56.60;;;;;;5097932;28;20087;-72
2022/03/21 03:29:58;;;;;;;35.10;28.52;;;12.60;56.70;;;;;;5097922;28;20423;-72
2022/03/21 03:32:25;;;;;;;34.65;26.98;;;12.60;56.50;;;;;;5075765;28;20060;-72
2022/03/21 03:34:51;;;;;;;35.47;28.77;;;12.50;56.60;;;;;;5060218;28;20400;-70
2022/03/21 03:37:17;;;;;;;35.22;28.52;;;12.60;56.60;;;;;;5043507;28;20099;-71
2022/03/21 03:39:43;;;;;;;35.35;28.73;;;12.50;56.70;;;;;;5077391;28;20080;-72
2022/03/21 03:42:09;;;;;;;32.70;26.50;;;12.50;56.50;;;;;;5077488;28;20040;-70
2022/03/21 03:44:34;;;;;;;35.72;28.80;;;12.50;56.70;;;;;;5059981;28;20044;-71
2022/03/21 03:47:00;;;;;;;34.35;28.35;;;12.50;56.80;;;;;;5077348;28;20044;-71
2022/03/21 03:49:26;;;;;;;34.03;28.60;;;12.50;56.80;;;;;;5077469;28;20352;-71
2022/03/21 03:51:52;;;;;;;35.10;28.90;;;12.40;56.40;;;;;;5059833;28;20052;-71
2022/03/21 03:54:18;;;;;;;35.20;28.17;;;12.40;56.60;;;;;;5043118;28;20049;-71
2022/03/21 03:56:44;;;;;;;37.03;29.52;;;12.40;56.70;;;;;;5059424;28;20128;-73
2022/03/21 03:59:10;;;;;;;38.88;29.15;;;12.40;56.80;;;;;;5077222;28;20052;-73
2022/03/21 04:01:38;;;;;;;33.13;27.70;;;12.40;56.80;;;;;;5082865;28;20040;-73
2022/03/21 04:04:04;;;;;;;34.28;26.73;;;12.40;56.80;;;;;;5097511;28;20102;-71
2022/03/21 04:06:30;;;;;;;36.17;28.48;;;12.40;56.70;;;;;;5097701;28;20137;-72
2022/03/21 04:08:55;;;;;;;32.10;27.25;;;12.40;56.80;;;;;;5079453;28;20040;-70
2022/03/21 04:11:21;;;;;;;33.40;26.92;;;12.30;56.80;;;;;;5079899;28;20044;-71
2022/03/21 04:13:47;;;;;;;35.08;28.73;;;12.40;56.80;;;;;;5079366;28;20048;-72
2022/03/21 04:16:16;;;;;;;36.10;28.58;;;12.30;56.40;;;;;;5097223;28;20455;-72
2022/03/21 04:18:43;;;;;;;37.13;28.80;;;12.30;56.40;;;;;;5097070;28;20055;-71
2022/03/21 04:21:08;;;;;;;37.03;29.02;;;12.30;56.60;;;;;;5096792;28;20048;-72
2022/03/21 04:23:34;;;;;;;35.15;29.70;;;12.30;56.60;;;;;;5096894;28;20516;-71
2022/03/21 04:26:00;;;;;;;35.10;29.23;;;12.30;56.70;;;;;;5079064;28;20056;-73
2022/03/21 04:28:26;;;;;;;34.55;29.75;;;12.20;56.60;;;;;;5097073;28;20105;-73
2022/03/21 04:30:51;;;;;;;36.38;29.63;;;12.20;56.70;;;;;;5078767;28;20451;-71
2022/03/21 04:33:17;;;;;;;33.90;27.33;;;12.20;56.70;;;;;;5078402;28;20063;-72
2022/03/21 04:35:44;;;;;;;37.60;29.10;;;12.20;56.80;;;;;;5078681;28;20043;-71
2022/03/21 04:38:14;;;;;;;35.60;28.98;;;12.20;56.80;;;;;;5096607;28;20044;-73
2022/03/21 04:40:46;;;;;;;33.17;27.83;;;12.20;56.80;;;;;;5097213;28;20044;-71
2022/03/21 04:43:13;;;;;;;35.70;28.40;;;12.20;56.90;;;;;;5096788;28;20048;-72
2022/03/21 04:45:40;;;;;;;38.13;30.13;;;12.20;56.90;;;;;;5096445;28;20059;-71
2022/03/21 04:48:06;;;;;;;35.42;28.35;;;12.20;56.70;;;;;;5096474;28;20366;-72
2022/03/21 04:50:33;;;;;;;35.70;28.75;;;12.20;56.70;;;;;;5096255;28;20130;-73
2022/03/21 04:52:59;;;;;;;35.30;29.02;;;12.20;56.70;;;;;;5096176;28;20055;-71
2022/03/21 04:55:25;;;;;;;38.92;29.92;;;12.20;57.40;;;;;;5078566;28;20050;-71
2022/03/21 04:57:51;;;;;;;41.15;33.00;;;12.20;57.10;;;;;;5096288;28;20044;-74
2022/03/21 05:00:17;;;;;;;43.38;32.72;;;12.30;55.70;;;;;;5096321;28;20055;-72
2022/03/21 05:02:43;;;;;;;40.10;32.83;;;12.30;54.50;;;;;;5095450;28;20039;-72
2022/03/21 05:05:09;;;;;;;40.58;33.20;;;12.30;54.00;;;;;;5095986;28;20067;-72
2022/03/21 05:07:45;;;;;;;43.33;34.63;;;12.20;53.60;;;;;;5078260;28;20052;-73
2022/03/21 05:10:14;;;;;;;41.40;33.42;;;12.10;53.40;;;;;;5077940;28;20055;-73
2022/03/21 05:12:41;;;;;;;45.28;35.10;;;12.10;53.60;;;;;;5096052;28;20055;-73
2022/03/21 05:15:08;;;;;;;44.30;34.95;;;12.00;53.60;;;;;;5096339;28;20409;-73
2022/03/21 05:17:34;;;;;;;46.03;35.25;;;11.90;53.70;;;;;;5096093;28;20058;-73
2022/03/21 05:20:01;;;;;;;45.88;35.35;;;11.90;53.90;;;;;;5095559;28;20062;-73
2022/03/21 05:22:26;;;;;;;41.83;34.60;;;11.80;53.90;;;;;;5078002;28;20425;-74
2022/03/21 05:35:54;;;;;;;49.10;35.70;;;11.50;54.70;;;;;;5094937;28;20051;-72
2022/03/21 05:38:28;;;;;;;45.75;35.33;;;11.40;54.70;;;;;;5078407;28;20056;-74
2022/03/21 05:41:03;;;;;;;45.20;34.92;;;11.40;54.80;;;;;;5077978;28;20349;-72
2022/03/21 05:43:31;;;;;;;45.25;34.25;;;11.40;54.90;;;;;;5061104;28;20040;-72
2022/03/21 05:46:00;;;;;;;45.85;34.67;;;11.30;54.90;;;;;;5095336;28;20186;-73
2022/03/21 05:51:10;;;;;;;45.95;36.72;;;11.20;55.10;;;;;;5095305;28;20055;-72
2022/03/21 05:53:35;;;;;;;46.15;35.35;;;11.30;55.20;;;;;;5095409;28;20112;-72
2022/03/21 05:56:02;;;;;;;43.97;35.42;;;11.30;55.30;;;;;;5094973;28;20044;-73
2022/03/21 05:58:28;;;;;;;40.40;33.67;;;11.20;55.30;;;;;;5077403;28;20113;-72
2022/03/21 06:00:55;;;;;;;43.92;33.95;;;11.20;55.40;;;;;;5077756;28;20101;-72
2022/03/21 06:03:21;;;;;;;42.78;34.00;;;11.20;55.50;;;;;;5094291;28;20040;-73
2022/03/21 06:05:47;;;;;;;41.17;32.92;;;11.10;55.60;;;;;;5094964;28;20044;-71
2022/03/21 06:08:12;;;;;;;46.50;34.80;;;11.10;55.70;;;;;;5095217;28;20048;-72
2022/03/21 06:10:38;;;;;;;44.20;34.40;;;11.10;55.70;;;;;;5095200;28;20097;-72
2022/03/21 06:13:05;;;;;;;43.63;33.33;;;11.10;55.80;;;;;;5077677;28;20431;-72
2022/03/21 06:15:39;;;;;;;44.35;34.38;;;11.00;55.80;;;;;;5077390;28;20450;-72
2022/03/21 06:18:08;;;;;;;;;;;11.00;56.00;;;;;;5077774;28;20047;-70
2022/03/21 06:20:34;;;;;;;44.38;32.58;;;11.00;56.00;;;;;;5077836;28;20024;-72
2022/03/21 06:23:01;;;;;;;39.58;30.38;;;10.90;56.40;;;;;;5095698;28;20092;-69
2022/03/21 06:25:27;;;;;;;40.63;30.10;;;11.00;56.90;;;;;;5095108;28;20129;-71
2022/03/21 06:27:52;;;;;;;40.35;30.35;;;11.00;57.00;;;;;;5095199;28;20451;-70
2022/03/21 06:30:18;;;;;;;40.88;29.10;;;11.20;57.20;;;;;;5077394;28;20079;-72
2022/03/21 06:32:45;;;;;;;38.83;29.23;;;11.30;56.90;;;;;;5060805;28;20113;-72
2022/03/21 06:35:11;;;;;;;35.47;27.52;;;11.50;56.70;;;;;;5094967;28;20040;-71
2022/03/21 06:37:38;;;;;;;36.80;27.23;;;11.70;56.60;;;;;;5094818;28;20036;-72
2022/03/21 06:40:05;;;;;;;39.80;28.48;;;12.00;56.20;;;;;;5077933;28;20109;-72
2022/03/21 06:42:31;;;;;;;36.13;25.27;;;12.10;56.10;;;;;;5095040;28;20047;-72
2022/03/21 06:44:58;;;;;;;30.38;24.20;;;12.10;56.60;;;;;;5091986;28;20048;-72
2022/03/21 06:47:24;;;;;;;29.02;22.00;;;12.50;56.50;;;;;;5076723;28;20051;-72
2022/03/21 06:49:50;;;;;;;31.38;21.70;;;12.90;56.20;;;;;;5077177;28;20060;-72
2022/03/21 06:52:19;;;;;;;26.42;20.95;;;13.20;55.70;;;;;;5076948;28;20048;-72
2022/03/21 06:54:46;;;;;;;26.23;19.90;;;13.50;55.30;;;;;;5094824;28;20454;-72
2022/03/21 06:57:12;;;;;;;25.10;18.75;;;13.80;54.80;;;;;;5077036;28;20080;-73
2022/03/21 06:59:37;;;;;;;23.55;17.48;;;13.90;54.70;;;;;;5093109;28;20446;-72
2022/03/21 07:02:04;;;;;;;26.00;17.25;;;14.00;54.50;;;;;;5094547;28;20040;-73
2022/03/21 07:04:30;;;;;;;21.15;15.82;;;14.10;54.50;;;;;;5068864;28;20044;-75
2022/03/21 07:06:57;;;;;;;18.58;15.30;;;14.30;54.50;;;;;;5084480;28;20044;-77
2022/03/21 07:09:24;;;;;;;17.48;14.13;;;14.50;54.30;;;;;;5095154;28;20055;-75
2022/03/21 07:11:51;;;;;;;19.90;15.15;;;14.60;54.20;;;;;;5063503;28;20044;-76
2022/03/21 07:14:17;;;;;;;20.30;14.65;;;14.80;54.20;;;;;;5098161;28;20105;-77
2022/03/21 07:16:42;;;;;;;18.63;13.65;;;14.90;54.20;;;;;;5098108;28;20044;-76
2022/03/21 07:19:11;;;;;;;17.42;13.13;;;15.00;54.40;;;;;;5098795;28;20050;-76
2022/03/21 07:21:37;;;;;;;18.58;12.73;;;15.10;54.80;;;;;;5077355;28;20055;-78
2022/03/21 07:24:03;;;;;;;20.70;13.00;;;15.10;54.70;;;;;;5097899;28;20040;-75
2022/03/21 07:26:31;;;;;;;17.13;11.23;;;15.20;54.80;;;;;;5097821;28;20462;-76
2022/03/21 07:28:56;;;;;;;15.55;12.43;;;15.30;54.80;;;;;;5096666;28;20048;-74
2022/03/21 07:31:23;;;;;;;15.07;11.38;;;15.30;54.90;;;;;;5096543;28;20048;-73
2022/03/21 07:33:49;;;;;;;16.35;10.85;;;15.40;55.00;;;;;;5092480;28;20044;-73
2022/03/21 07:36:15;;;;;;;15.75;10.57;;;15.50;55.10;;;;;;5082236;28;20083;-74
2022/03/21 07:38:41;;;;;;;17.65;11.00;;;15.40;55.30;;;;;;5079889;28;20072;-75
2022/03/21 07:41:07;;;;;;;17.58;11.30;;;15.50;55.40;;;;;;5080564;28;20047;-74
2022/03/21 07:43:37;;;;;;;14.75;10.55;;;15.40;55.30;;;;;;5080034;28;20043;-75
2022/03/21 07:48:49;;;;;;;14.00;9.93;;;15.50;55.60;;;;;;5075024;28;20044;-75
2022/03/21 07:51:14;;;;;;;15.48;10.02;;;15.70;55.20;;;;;;5076248;28;20056;-76
2022/03/21 07:53:41;;;;;;;16.13;10.13;;;15.70;55.60;;;;;;5086755;28;20146;-77
2022/03/21 07:56:08;;;;;;;15.77;9.38;;;15.80;55.60;;;;;;5080228;28;20048;-79
2022/03/21 07:58:35;;;;;;;12.05;9.55;;;15.90;55.70;;;;;;5094101;28;20044;-74
2022/03/21 08:01:02;;;;;;;14.77;9.98;;;16.00;55.40;;;;;;5076979;28;20044;-71
2022/03/21 08:03:28;;;;;;;14.32;9.88;;;16.10;55.30;;;;;;5077120;28;20110;-74
2022/03/21 08:05:58;;;;;;;15.73;9.50;;;16.20;55.20;;;;;;5093516;28;20090;-80
2022/03/21 08:08:23;;;;;;;17.50;9.70;;;16.30;55.30;;;;;;5095662;28;20062;-77
2022/03/21 08:10:49;;;;;;;12.05;9.25;;;16.40;55.20;;;;;;5077832;28;20039;-76
2022/03/21 08:13:17;;;;;;;13.07;9.32;;;16.40;55.00;;;;;;5086095;28;20087;-75
2022/03/21 08:15:47;;;;;;;11.60;8.85;;;16.50;55.20;;;;;;5077370;28;20083;-75
2022/03/21 08:18:13;;;;;;;18.40;10.10;;;16.60;55.50;;;;;;5076577;28;20137;-74
2022/03/21 08:20:40;;;;;;;15.48;11.75;;;16.60;55.30;;;;;;5088764;28;20473;-75
2022/03/21 08:23:11;;;;;;;16.13;10.80;;;16.60;54.80;;;;;;5076649;28;20052;-74
2022/03/21 08:25:48;;;;;;;14.50;10.38;;;16.70;54.50;;;;;;5092917;28;20056;-73
2022/03/21 08:28:14;;;;;;;15.07;10.23;;;16.70;54.70;;;;;;5095462;28;20044;-75
2022/03/21 08:30:41;;;;;;;14.57;9.70;;;16.80;54.90;;;;;;5089859;28;20438;-76
2022/03/21 08:33:09;;;;;;;17.77;9.77;;;16.90;54.70;;;;;;5095718;28;20127;-74
2022/03/21 08:35:37;;;;;;;11.77;8.38;;;17.00;54.30;;;;;;5061423;28;20044;-76
2022/03/21 08:38:04;;;;;;;13.32;8.23;;;17.10;54.20;;;;;;5096414;28;20052;-75
2022/03/21 08:40:30;;;;;;;11.98;8.07;;;17.10;53.70;;;;;;5079014;28;20135;-76
2022/03/21 08:42:56;;;;;;;14.48;7.72;;;17.20;53.80;;;;;;5090085;28;20115;-72
2022/03/21 08:45:22;;;;;;;11.57;7.55;;;17.20;53.70;;;;;;5085655;28;20105;-75
2022/03/21 08:47:50;;;;;;;13.43;8.50;;;17.20;53.00;;;;;;5082516;28;20052;-74
2022/03/21 08:50:17;;;;;;;12.27;7.30;;;16.90;54.30;;;;;;5094407;28;20055;-75
2022/03/21 08:52:43;;;;;;;11.10;7.57;;;16.80;54.80;;;;;;5070796;28;20048;-76
2022/03/21 08:55:10;;;;;;;10.63;7.30;;;16.80;55.00;;;;;;5096138;28;20044;-75
2022/03/21 08:57:35;;;;;;;11.43;7.93;;;17.00;54.70;;;;;;5096234;28;20123;-74
2022/03/21 09:00:04;;;;;;;12.13;6.95;;;17.00;54.50;;;;;;5095893;28;20127;-72
2022/03/21 09:02:31;;;;;;;8.88;6.68;;;17.00;54.30;;;;;;5095988;28;20069;-74
2022/03/21 09:04:58;;;;;;;9.35;6.03;;;17.10;54.10;;;;;;5097407;28;20044;-74
2022/03/21 09:07:24;;;;;;;11.25;7.10;;;17.20;54.10;;;;;;5098774;28;20055;-70
2022/03/21 09:09:53;;;;;;;9.05;7.35;;;17.20;53.70;;;;;;5091844;28;20432;-79
2022/03/21 09:12:19;;;;;;;12.68;7.13;;;17.30;53.50;;;;;;5074774;28;20098;-78
2022/03/21 09:14:44;;;;;;;16.05;7.85;;;17.30;53.60;;;;;;5069761;28;20372;-77
2022/03/21 09:17:10;;;;;;;8.25;6.20;;;17.20;54.00;;;;;;5072164;28;20123;-77
2022/03/21 09:19:36;;;;;;;12.68;7.93;;;17.20;54.00;;;;;;5075529;28;20341;-76
2022/03/21 09:22:02;;;;;;;12.75;6.88;;;17.20;54.00;;;;;;5075471;28;20056;-77
2022/03/21 09:24:51;;;;;;;11.52;6.63;;;17.20;54.30;;;;;;5075057;28;20040;-79
2022/03/21 09:27:16;;;;;;;15.73;9.27;;;17.20;54.50;;;;;;5074666;28;20076;-75
2022/03/21 09:29:47;;;;;;;16.63;10.25;;;17.30;54.00;;;;;;5075468;28;20128;-80
2022/03/21 09:32:18;;;;;;;17.88;12.00;;;17.30;53.40;;;;;;5044018;28;20039;-78
2022/03/21 09:34:44;;;;;;;17.58;12.82;;;17.30;52.50;;;;;;5095533;28;20409;-77
2022/03/21 09:37:10;;;;;;;15.80;12.00;;;17.30;51.70;;;;;;5074394;28;20048;-77
2022/03/21 09:39:36;;;;;;;21.15;13.98;;;17.30;51.50;;;;;;5075460;28;20076;-75
2022/03/21 09:42:03;;;;;;;22.83;15.63;;;17.30;51.40;;;;;;5075046;28;20048;-74
2022/03/21 09:44:29;;;;;;;21.35;14.68;;;17.20;50.80;;;;;;5072435;28;20040;-73
2022/03/21 09:46:55;;;;;;;25.25;15.93;;;17.20;50.60;;;;;;5075036;28;20170;-73
2022/03/21 09:49:28;;;;;;;25.33;17.25;;;17.10;50.20;;;;;;5064137;28;20063;-76
2022/03/21 09:51:56;;;;;;;27.33;17.85;;;17.10;50.00;;;;;;5075236;28;20433;-76
2022/03/21 09:54:21;;;;;;;28.85;18.15;;;17.00;49.90;;;;;;5071521;28;20079;-79
2022/03/21 09:56:47;;;;;;;25.30;17.42;;;17.00;49.80;;;;;;5057051;28;20404;-76
2022/03/21 09:59:13;;;;;;;23.85;16.35;;;16.90;49.50;;;;;;5057108;28;20122;-76
2022/03/21 10:01:38;;;;;;;24.48;17.98;;;16.90;49.90;;;;;;5055935;28;20045;-76
2022/03/21 10:04:06;;;;;;;24.33;16.17;;;16.80;49.90;;;;;;5057416;28;20118;-77
2022/03/21 10:06:43;;;;;;;26.55;17.55;;;16.80;49.70;;;;;;5075218;28;20116;-77
2022/03/21 10:09:15;;;;;;;24.67;17.17;;;16.80;49.50;;;;;;5074675;28;20117;-76
2022/03/21 10:11:57;;;;;;;24.25;17.38;;;16.70;49.50;;;;;;5074787;28;20063;-77
2022/03/21 10:14:26;;;;;;;26.92;18.52;;;16.70;49.40;;;;;;5074617;28;20047;-75
2022/03/21 10:16:53;;;;;;;25.15;17.52;;;16.70;49.30;;;;;;5075058;28;20049;-79
2022/03/21 10:19:18;;;;;;;25.23;18.33;;;16.60;49.20;;;;;;5074815;28;20051;-77
2022/03/21 10:22:04;;;;;;;25.00;16.52;;;16.60;49.10;;;;;;5075117;28;20049;-73
2022/03/21 10:24:41;;;;;;;23.23;16.75;;;16.60;48.60;;;;;;5075040;28;20048;-74
2022/03/21 10:27:25;;;;;;;25.88;17.27;;;16.50;49.00;;;;;;5054662;28;20037;-75
2022/03/21 10:29:59;;;;;;;22.20;16.85;;;16.50;49.40;;;;;;5054503;28;20410;-75
2022/03/21 10:32:42;;;;;;;26.33;16.88;;;16.40;49.60;;;;;;5072550;28;20471;-77
2022/03/21 10:35:31;;;;;;;28.27;16.33;;;16.40;49.60;;;;;;5074364;28;20044;-76
2022/03/21 10:38:01;;;;;;;24.95;15.00;;;16.40;50.20;;;;;;5053293;28;20456;-74
2022/03/21 10:40:30;;;;;;;30.70;16.58;;;16.40;50.20;;;;;;5074866;28;20036;-74
2022/03/21 10:43:05;;;;;;;23.25;15.52;;;16.40;50.40;;;;;;5077245;28;20113;-74
2022/03/21 10:45:47;;;;;;;21.67;15.07;;;16.40;50.70;;;;;;5078518;28;20135;-73
2022/03/21 10:48:14;;;;;;;21.95;14.82;;;16.30;51.10;;;;;;5054160;28;20470;-76
2022/03/21 10:50:44;;;;;;;24.15;14.70;;;16.30;51.40;;;;;;5098537;28;20048;-74
2022/03/21 10:53:17;;;;;;;22.17;14.48;;;16.30;51.60;;;;;;5080853;28;20140;-74
2022/03/21 10:55:45;;;;;;;20.02;14.57;;;16.30;52.00;;;;;;5098394;28;20530;-73
2022/03/21 10:58:15;;;;;;;21.05;14.18;;;16.30;52.20;;;;;;5098714;28;20055;-77
2022/03/21 11:00:41;;;;;;;20.00;12.70;;;16.30;52.60;;;;;;5098804;28;20044;-75
2022/03/21 11:03:18;;;;;;;20.58;13.98;;;16.30;52.60;;;;;;5098385;28;20463;-75
2022/03/21 11:05:48;;;;;;;18.67;12.95;;;16.20;52.70;;;;;;5080908;28;20337;-76
2022/03/21 11:08:18;;;;;;;18.65;12.70;;;16.20;52.80;;;;;;5098380;28;20083;-73
2022/03/21 11:10:47;;;;;;;16.83;12.13;;;16.20;53.00;;;;;;5080555;28;20052;-76
2022/03/21 11:13:13;;;;;;;16.77;12.30;;;16.20;53.10;;;;;;5099198;28;20344;-74
2022/03/21 11:15:42;;;;;;;18.15;11.93;;;16.20;53.20;;;;;;5080525;28;20237;-74
2022/03/21 11:18:09;;;;;;;15.63;11.95;;;16.20;53.30;;;;;;5080766;28;20443;-75
2022/03/21 11:20:35;;;;;;;16.75;11.52;;;16.20;53.40;;;;;;5080285;28;20108;-75
2022/03/21 11:23:02;;;;;;;17.00;10.85;;;16.10;53.40;;;;;;5098131;28;20040;-74
2022/03/21 11:25:37;;;;;;;15.95;10.30;;;16.10;53.40;;;;;;5098446;28;20362;-73
2022/03/21 11:28:22;;;;;;;18.15;10.82;;;16.10;53.50;;;;;;5098760;28;20119;-76
2022/03/21 11:31:06;;;;;;;18.65;10.70;;;16.10;53.60;;;;;;5097286;28;20055;-74
2022/03/21 11:33:32;;;;;;;16.70;10.27;;;16.10;53.60;;;;;;5080130;28;20044;-75
2022/03/21 11:36:07;;;;;;;14.30;8.90;;;16.10;53.70;;;;;;5098204;28;20481;-76
2022/03/21 11:38:41;;;;;;;16.65;10.30;;;16.10;53.70;;;;;;5077591;28;20503;-74
2022/03/21 11:41:23;;;;;;;13.05;8.93;;;16.10;54.00;;;;;;5077832;28;20376;-76
2022/03/21 11:44:04;;;;;;;15.07;9.35;;;16.10;54.10;;;;;;5074454;28;20364;-76
2022/03/21 11:46:37;;;;;;;11.80;8.38;;;16.00;54.60;;;;;;5077645;28;20049;-74
2022/03/21 11:49:19;;;;;;;12.23;8.70;;;16.00;54.70;;;;;;5084042;28;20515;-77
2022/03/21 11:52:05;;;;;;;10.98;7.47;;;16.00;55.10;;;;;;5097525;28;20055;-74
2022/03/21 11:54:34;;;;;;;12.27;8.15;;;15.90;55.40;;;;;;5096219;28;20071;-74
2022/03/21 11:57:02;;;;;;;12.52;8.52;;;15.90;55.30;;;;;;5097825;28;20087;-76
2022/03/21 11:59:34;;;;;;;11.43;7.57;;;15.90;55.20;;;;;;5079768;28;20044;-74
2022/03/21 12:02:11;;;;;;;12.43;8.15;;;15.90;55.30;;;;;;5096910;28;20094;-73
2022/03/21 12:04:39;;;;;;;13.55;8.63;;;15.90;54.70;;;;;;5097356;28;20055;-74
2022/03/21 12:07:14;;;;;;;12.23;9.45;;;15.90;51.40;;;;;;5097178;28;20055;-73
2022/03/21 12:10:02;;;;;;;12.65;9.60;;;15.80;47.10;;;;;;5097173;28;20047;-73
2022/03/21 12:12:39;;;;;;;12.00;8.88;;;15.70;47.70;;;;;;5096952;28;20079;-74
2022/03/21 12:15:29;;;;;;;11.85;8.57;;;15.70;48.30;;;;;;5083294;28;20053;-74
2022/03/21 12:17:55;;;;;;;10.15;7.68;;;15.70;49.10;;;;;;5059289;28;20136;-73
2022/03/21 12:20:23;;;;;;;12.02;8.65;;;15.70;49.50;;;;;;5075662;28;20127;-73
2022/03/21 12:22:49;;;;;;;9.57;7.45;;;15.70;50.10;;;;;;5058103;28;20044;-74
2022/03/21 12:25:48;;;;;;;12.77;8.10;;;15.70;50.30;;;;;;5062542;28;20036;-74
2022/03/21 12:31:26;;;;;;;9.60;6.85;;;15.70;50.80;;;;;;5076760;28;20051;-75
2022/03/21 12:33:52;;;;;;;11.98;8.00;;;15.70;51.20;;;;;;5096688;28;20424;-73
2022/03/21 12:36:32;;;;;;;9.52;7.00;;;15.70;51.30;;;;;;5079142;28;20044;-73
2022/03/21 12:38:58;;;;;;;9.85;6.70;;;15.70;51.60;;;;;;5096799;28;20409;-77
2022/03/21 12:41:32;;;;;;;9.60;6.80;;;15.70;51.60;;;;;;5096766;28;20043;-74
2022/03/21 12:43:59;;;;;;;9.23;6.93;;;15.70;51.80;;;;;;5096432;28;20044;-76
2022/03/21 12:46:26;;;;;;;10.10;6.55;;;15.70;52.00;;;;;;5096511;28;20056;-74
2022/03/21 12:49:00;;;;;;;7.45;5.65;;;15.70;52.10;;;;;;5096180;28;20095;-76
2022/03/21 12:51:35;;;;;;;11.07;7.20;;;15.70;52.20;;;;;;5079205;28;20451;-72
2022/03/21 12:54:05;;;;;;;12.18;7.40;;;15.70;52.10;;;;;;5078771;28;20109;-74
2022/03/21 12:56:32;;;;;;;8.20;6.25;;;15.60;52.40;;;;;;5101446;28;20043;-74
2022/03/21 12:59:01;;;;;;;7.95;5.68;;;15.60;52.40;;;;;;5115900;28;20047;-75